Time;durP1;ratioP1;P1;durP2;ratioP2;P2;SDS_P1;SDS_P2;PMS_P1;PMS_P2;Temp;Humidity;BMP_temperature;BMP_pressure;BME280_temperature;BME280_humidity;BME280_pressure;Samples;Min_cycle;Max_cycle;Signal;HPM_P1;HPM_P2
2024/02/11 00:04:24;;;;;;;16.63;13.68;;;;;;;9.56;100.00;97629.09;10432383;28;20040;-79
2024/02/11 00:09:28;;;;;;;17.35;14.07;;;;;;;9.56;100.00;97639.81;10438754;28;20045;-79
2024/02/11 00:14:31;;;;;;;18.75;14.88;;;;;;;9.59;100.00;97642.94;10423737;28;20056;-81
2024/02/11 00:19:35;;;;;;;18.65;14.65;;;;;;;9.69;100.00;97634.63;10431222;28;20053;-78
2024/02/11 00:24:38;;;;;;;18.73;14.95;;;;;;;9.67;100.00;97626.78;10478618;28;20052;-82
2024/02/11 00:29:41;;;;;;;21.48;15.95;;;;;;;9.63;100.00;97630.84;10428461;28;20052;-80
2024/02/11 00:34:45;;;;;;;19.42;15.90;;;;;;;9.64;100.00;97631.69;10441721;28;20045;-81
2024/02/11 00:39:48;;;;;;;19.95;16.55;;;;;;;9.64;100.00;97631.69;10448842;28;20045;-81
2024/02/11 00:44:52;;;;;;;21.70;16.55;;;;;;;9.66;100.00;97632.34;10432744;28;20088;-78
2024/02/11 00:49:56;;;;;;;19.45;15.18;;;;;;;9.63;100.00;97636.22;10422573;28;20045;-82
2024/02/11 00:55:00;;;;;;;19.45;15.93;;;;;;;9.65;100.00;97631.50;10423875;28;20110;-81
2024/02/11 01:00:05;;;;;;;18.67;15.48;;;;;;;9.62;100.00;97641.75;10447093;28;21551;-82
2024/02/11 01:05:11;;;;;;;20.25;16.40;;;;;;;9.63;100.00;97641.56;10437520;28;20041;-80
2024/02/11 01:10:15;;;;;;;21.92;16.15;;;;;;;9.50;100.00;97655.59;10417047;28;20060;-78
2024/02/11 01:15:19;;;;;;;18.95;16.27;;;;;;;9.36;100.00;97651.06;10441888;28;20051;-81
2024/02/11 01:20:23;;;;;;;26.63;16.52;;;;;;;9.43;100.00;97651.97;10419729;28;20049;-79
2024/02/11 01:25:26;;;;;;;20.65;16.65;;;;;;;9.51;100.00;97662.63;10431315;28;20412;-78
2024/02/11 01:30:29;;;;;;;20.45;16.55;;;;;;;9.56;100.00;97655.88;10443821;28;20052;-81
2024/02/11 01:35:34;;;;;;;21.75;17.05;;;;;;;9.53;100.00;97650.91;10438300;28;20052;-80
2024/02/11 01:40:37;;;;;;;18.83;15.10;;;;;;;9.49;100.00;97645.09;10419885;28;20057;-79
2024/02/11 01:45:41;;;;;;;20.52;16.25;;;;;;;9.49;100.00;97639.72;10446284;28;20057;-82
2024/02/11 01:50:47;;;;;;;22.95;16.35;;;;;;;9.49;100.00;97639.72;10458951;28;20052;-82
2024/02/11 01:55:51;;;;;;;20.77;16.75;;;;;;;9.46;100.00;97648.09;10418805;28;20170;-81
2024/02/11 02:00:55;;;;;;;23.52;17.25;;;;;;;9.45;100.00;97641.09;10418048;28;20041;-80
2024/02/11 02:05:59;;;;;;;22.83;18.05;;;;;;;9.35;100.00;97640.53;10428272;28;20048;-81
2024/02/11 02:11:03;;;;;;;25.85;17.30;;;;;;;9.37;100.00;97636.66;10431618;28;20049;-80
2024/02/11 02:16:08;;;;;;;22.05;16.83;;;;;;;9.35;100.00;97633.34;10440092;28;20125;-80
2024/02/11 02:21:12;;;;;;;21.40;17.58;;;;;;;9.38;100.00;97632.97;10464001;28;20301;-80
2024/02/11 02:26:17;;;;;;;23.98;17.92;;;;;;;9.41;100.00;97629.94;10455977;28;20044;-80
2024/02/11 02:31:21;;;;;;;22.67;17.05;;;;;;;9.40;100.00;97628.25;10451225;28;20052;-81
2024/02/11 02:36:24;;;;;;;25.40;17.83;;;;;;;9.37;100.00;97620.59;10427102;28;20053;-78
2024/02/11 02:41:29;;;;;;;25.50;18.67;;;;;;;9.31;100.00;97626.69;10408886;28;20068;-82
2024/02/11 02:46:31;;;;;;;24.38;18.42;;;;;;;9.37;100.00;97622.44;10381950;28;20045;-80
2024/02/11 02:51:35;;;;;;;23.65;17.40;;;;;;;9.37;100.00;97615.22;10371984;28;21287;-78
2024/02/11 02:56:40;;;;;;;23.73;18.23;;;;;;;9.31;100.00;97615.97;10427829;28;20052;-81
2024/02/11 03:01:43;;;;;;;22.40;17.50;;;;;;;9.21;100.00;97605.50;10389701;28;20151;-81
2024/02/11 03:06:47;;;;;;;23.00;17.92;;;;;;;9.23;100.00;97602.66;10402448;28;20127;-80
2024/02/11 03:11:51;;;;;;;24.35;18.17;;;;;;;9.17;100.00;97598.88;10379825;28;20803;-81
2024/02/11 03:16:54;;;;;;;25.33;18.90;;;;;;;9.20;100.00;97600.34;10383215;28;20056;-80
2024/02/11 03:21:58;;;;;;;26.38;19.98;;;;;;;9.20;100.00;97603.03;10396496;28;20151;-78
2024/02/11 03:27:02;;;;;;;25.88;19.60;;;;;;;9.25;100.00;97600.63;10411261;28;20041;-80
2024/02/11 03:32:07;;;;;;;25.75;18.20;;;;;;;9.28;100.00;97601.09;10390626;28;21603;-80
2024/02/11 03:37:10;;;;;;;27.08;19.00;;;;;;;9.25;100.00;97588.06;10396157;28;20049;-76
2024/02/11 03:42:14;;;;;;;27.38;20.60;;;;;;;9.05;100.00;97605.66;10405152;28;20421;-80
2024/02/11 03:47:17;;;;;;;27.42;20.35;;;;;;;8.94;100.00;97631.06;10414651;28;20041;-80
2024/02/11 03:52:21;;;;;;;29.77;20.58;;;;;;;8.86;100.00;97633.81;10448675;28;20052;-78
2024/02/11 03:57:25;;;;;;;31.08;21.45;;;;;;;8.96;100.00;97637.03;10453128;28;20052;-80
2024/02/11 04:02:28;;;;;;;30.15;22.10;;;;;;;8.95;100.00;97639.91;10439400;28;20119;-79
2024/02/11 04:07:32;;;;;;;29.83;21.48;;;;;;;8.97;100.00;97635.22;10435978;28;20577;-79
2024/02/11 04:12:36;;;;;;;34.45;23.92;;;;;;;8.91;100.00;97641.28;10416170;28;20138;-78
2024/02/11 04:17:41;;;;;;;36.30;25.58;;;;;;;8.85;100.00;97640.16;10437555;28;20052;-81
2024/02/11 04:22:45;;;;;;;37.00;24.02;;;;;;;8.88;100.00;97638.97;10453714;28;20105;-81
2024/02/11 04:27:50;;;;;;;40.72;25.98;;;;;;;8.85;100.00;97640.16;10445096;28;20064;-82
2024/02/11 04:32:53;;;;;;;41.47;25.60;;;;;;;8.93;100.00;97639.25;10437102;28;20136;-80
2024/02/11 04:37:56;;;;;;;42.30;26.05;;;;;;;8.92;100.00;97637.59;10437222;28;20079;-80
2024/02/11 04:43:01;;;;;;;40.50;25.83;;;;;;;8.92;100.00;97638.44;10450151;28;20083;-81
2024/02/11 04:48:04;;;;;;;35.65;23.55;;;;;;;8.97;100.00;97635.22;10415634;28;20772;-79
2024/02/11 04:53:09;;;;;;;35.35;23.20;;;;;;;8.98;100.00;97636.88;10447426;28;21293;-79
2024/02/11 04:58:15;;;;;;;37.80;24.10;;;;;;;8.95;100.00;97638.06;10447012;28;20048;-80
2024/02/11 05:03:20;;;;;;;36.40;23.52;;;;;;;8.89;100.00;97628.09;10389935;28;20191;-79
2024/02/11 05:08:24;;;;;;;35.92;23.25;;;;;;;8.88;100.00;97630.94;10399657;28;20057;-80
2024/02/11 05:13:30;;;;;;;34.55;23.45;;;;;;;8.90;100.00;97628.91;10406369;28;20052;-80
2024/02/11 05:18:38;;;;;;;38.25;23.58;;;;;;;8.90;100.00;97637.78;10395833;28;20049;-79
2024/02/11 05:23:47;;;;;;;37.50;23.85;;;;;;;8.88;100.00;97641.63;10379994;28;20052;-79
2024/02/11 05:28:51;;;;;;;38.88;24.98;;;;;;;8.89;100.00;97636.13;10422674;28;20112;-78
2024/02/11 05:33:55;;;;;;;35.42;24.17;;;;;;;8.89;100.00;97638.78;10440296;28;20052;-80
2024/02/11 05:38:59;;;;;;;34.40;22.95;;;;;;;8.89;100.00;97624.59;10458307;28;20060;-81
2024/02/11 05:44:03;;;;;;;36.95;24.05;;;;;;;8.89;100.00;97621.91;10451930;28;21265;-80
2024/02/11 05:49:08;;;;;;;34.40;23.88;;;;;;;8.86;100.00;97622.25;10453223;28;20051;-81
2024/02/11 05:54:11;;;;;;;32.47;23.33;;;;;;;8.83;100.00;97612.72;10446806;28;20045;-81
2024/02/11 05:59:17;;;;;;;35.97;24.23;;;;;;;8.79;100.00;97624.81;10431032;28;20059;-80
2024/02/11 06:04:20;;;;;;;35.72;23.88;;;;;;;8.75;100.00;97629.72;10466290;28;20053;-81
2024/02/11 06:09:23;;;;;;;37.78;25.17;;;;;;;8.74;100.00;97645.94;10466091;28;20115;-78
2024/02/11 06:14:28;;;;;;;37.88;24.10;;;;;;;8.73;100.00;97644.28;10464597;28;20139;-80
2024/02/11 06:19:31;;;;;;;41.92;26.05;;;;;;;8.70;100.00;97650.00;10431078;28;20049;-79
2024/02/11 06:24:34;;;;;;;39.83;25.92;;;;;;;8.70;100.00;97644.63;10433299;28;20049;-80
2024/02/11 06:29:41;;;;;;;44.85;26.48;;;;;;;8.80;100.00;97650.56;10448768;28;20788;-80
2024/02/11 06:34:45;;;;;;;41.30;26.10;;;;;;;8.75;100.00;97655.63;10454212;28;20075;-79
2024/02/11 06:39:48;;;;;;;39.60;25.08;;;;;;;8.72;100.00;97658.66;10442537;28;20068;-81
2024/02/11 06:44:53;;;;;;;45.25;26.10;;;;;;;8.77;100.00;97661.63;10459896;28;20037;-79
2024/02/11 06:49:56;;;;;;;38.13;24.17;;;;;;;8.79;100.00;97676.50;10423758;28;20068;-81
2024/02/11 06:55:00;;;;;;;38.97;24.52;;;;;;;8.77;100.00;97683.88;10440115;28;20999;-79
2024/02/11 07:00:08;;;;;;;41.05;23.73;;;;;;;8.81;100.00;97692.38;10436850;28;20045;-80
2024/02/11 07:05:11;;;;;;;37.67;23.85;;;;;;;8.82;100.00;97700.22;10422611;28;20053;-80
2024/02/11 07:10:15;;;;;;;40.00;23.48;;;;;;;8.84;100.00;97713.44;10410075;28;20420;-79
2024/02/11 07:15:19;;;;;;;39.08;24.63;;;;;;;8.88;100.00;97717.41;10409915;28;20068;-81
2024/02/11 07:20:22;;;;;;;40.67;25.65;;;;;;;8.81;100.00;97719.97;10380292;28;20053;-78
2024/02/11 07:25:27;;;;;;;39.45;24.25;;;;;;;8.84;100.00;97716.13;10390648;28;20049;-80
2024/02/11 07:30:32;;;;;;;37.08;23.25;;;;;;;8.89;100.00;97732.47;10405366;28;20049;-79
2024/02/11 07:35:35;;;;;;;37.13;22.80;;;;;;;8.94;100.00;97745.31;10408629;28;20049;-81
2024/02/11 07:40:38;;;;;;;32.38;21.25;;;;;;;8.93;100.00;97755.19;10410840;28;20073;-81
2024/02/11 07:45:43;;;;;;;25.25;15.73;;;;;;;9.08;100.00;97765.13;10391670;28;20100;-80
2024/02/11 07:50:46;;;;;;;29.80;18.42;;;;;;;9.33;100.00;97763.94;10388233;28;20052;-80
2024/02/11 07:55:54;;;;;;;28.15;18.70;;;;;;;9.49;100.00;97771.00;10398186;28;20145;-80
2024/02/11 08:00:59;;;;;;;22.63;16.33;;;;;;;9.60;100.00;97775.94;10412329;28;20077;-76
2024/02/11 08:06:02;;;;;;;21.95;15.45;;;;;;;9.55;100.00;97772.13;10410302;28;20165;-82
2024/02/11 08:11:06;;;;;;;30.83;18.27;;;;;;;9.44;100.00;97782.25;10429138;28;20462;-80
2024/02/11 08:16:11;;;;;;;29.42;19.27;;;;;;;9.27;100.00;97784.25;10435161;28;20542;-79
2024/02/11 08:21:14;;;;;;;25.63;17.15;;;;;;;9.18;100.00;97800.53;10455711;28;20069;-81
2024/02/11 08:26:17;;;;;;;27.50;17.20;;;;;;;9.06;100.00;97802.81;10435224;28;20053;-78
2024/02/11 08:31:22;;;;;;;23.60;16.23;;;;;;;9.18;100.00;97808.56;10437979;28;20045;-79
2024/02/11 08:36:26;;;;;;;25.58;17.35;;;;;;;9.32;100.00;97815.84;10442054;28;20045;-79
2024/02/11 08:41:30;;;;;;;27.90;17.85;;;;;;;9.41;100.00;97822.00;10439160;28;20135;-80
2024/02/11 08:46:34;;;;;;;22.63;17.25;;;;;;;9.42;100.00;97835.19;10436118;28;20056;-78
2024/02/11 08:51:38;;;;;;;26.23;17.77;;;;;;;9.40;100.00;97836.38;10440270;28;20053;-78
2024/02/11 08:56:41;;;;;;;30.10;17.92;;;;;;;9.37;100.00;97837.56;10444991;28;20052;-80
2024/02/11 09:01:51;;;;;;;21.83;14.55;;;;;;;9.27;100.00;97843.19;10438844;28;20059;-79
2024/02/11 09:06:55;;;;;;;20.60;14.10;;;;;;;9.31;100.00;97853.53;10438829;28;20389;-81
2024/02/11 09:11:58;;;;;;;23.77;14.23;;;;;;;9.25;100.00;97847.88;10434373;28;20052;-78
2024/02/11 09:17:02;;;;;;;23.08;15.43;;;;;;;9.34;100.00;97854.00;10428425;28;20051;-79
2024/02/11 09:22:07;;;;;;;25.88;13.88;;;;;;;9.20;100.00;97857.44;10436024;28;20041;-78
2024/02/11 09:27:10;;;;;;;22.30;14.98;;;;;;;9.33;100.00;97863.06;10417638;28;20795;-79
2024/02/11 09:32:16;;;;;;;19.55;13.73;;;;;;;9.36;100.00;97876.09;10421167;28;20053;-79
2024/02/11 09:37:20;;;;;;;22.25;14.23;;;;;;;9.39;100.00;97874.91;10443893;28;20061;-78
2024/02/11 09:42:23;;;;;;;21.63;14.13;;;;;;;9.34;100.00;97880.78;10441106;28;20053;-80
2024/02/11 09:47:27;;;;;;;23.30;14.13;;;;;;;9.28;100.00;97889.53;10451094;28;20461;-80
2024/02/11 09:52:31;;;;;;;19.58;13.98;;;;;;;9.13;100.00;97896.66;10436315;28;20048;-81
2024/02/11 09:57:34;;;;;;;20.02;13.65;;;;;;;9.11;100.00;97899.50;10432187;28;20119;-80
2024/02/11 10:02:40;;;;;;;18.38;11.55;;;;;;;8.71;100.00;97898.66;10444537;28;20057;-80
2024/02/11 10:07:44;;;;;;;23.25;10.68;;;;;;;8.92;100.00;97905.31;10438950;28;20179;-81
2024/02/11 10:12:51;;;;;;;19.52;12.23;;;;;;;8.91;100.00;97912.47;10430293;28;20072;-81
2024/02/11 10:17:56;;;;;;;18.92;12.00;;;;;;;8.80;100.00;97912.84;10436755;28;20044;-79
2024/02/11 10:22:59;;;;;;;14.80;9.52;;;;;;;8.84;100.00;97914.19;10450530;28;20137;-80
2024/02/11 10:28:06;;;;;;;11.57;5.82;;;;;;;8.53;100.00;97923.00;10441099;28;20044;-78
2024/02/11 10:33:11;;;;;;;10.13;8.00;;;;;;;8.36;100.00;97932.88;10457160;28;20134;-77
2024/02/11 10:38:14;;;;;;;8.70;7.57;;;;;;;8.28;100.00;97945.38;10455727;28;20064;-81
2024/02/11 10:43:21;;;;;;;8.80;6.68;;;;;;;7.90;100.00;97943.25;10463594;28;20058;-78
2024/02/11 10:48:25;;;;;;;11.52;8.85;;;;;;;8.08;100.00;97951.09;10470415;28;20057;-80
2024/02/11 10:53:36;;;;;;;13.63;9.13;;;;;;;8.01;100.00;97959.94;10451736;28;20106;-80
2024/02/11 10:58:43;;;;;;;15.27;10.10;;;;;;;7.98;100.00;97966.47;10457596;28;20052;-79
2024/02/11 11:03:50;;;;;;;14.35;9.63;;;;;;;7.72;100.00;97966.63;10452888;28;20041;-80
2024/02/11 11:08:54;;;;;;;16.92;12.88;;;;;;;7.82;100.00;97969.97;10438084;28;20052;-80
2024/02/11 11:13:58;;;;;;;18.25;12.20;;;;;;;7.58;100.00;97972.59;10441463;28;20060;-81
2024/02/11 11:19:07;;;;;;;22.23;16.23;;;;;;;7.66;100.00;97972.63;10460759;28;20070;-81
2024/02/11 11:24:10;;;;;;;23.63;14.30;;;;;;;7.39;100.00;97979.06;10451388;28;20045;-81
2024/02/11 11:29:15;;;;;;;26.95;17.98;;;;;;;7.17;100.00;97978.66;10437971;28;20040;-81
2024/02/11 11:34:20;;;;;;;30.58;18.13;;;;;;;7.46;100.00;97980.06;10435245;28;20056;-81
2024/02/11 11:39:25;;;;;;;31.42;19.17;;;;;;;6.84;100.00;97985.66;10437940;28;20766;-80
2024/02/11 11:44:31;;;;;;;30.98;17.73;;;;;;;6.88;100.00;97979.03;10425921;28;21269;-78
2024/02/11 11:49:37;;;;;;;26.80;14.88;;;;;;;6.74;100.00;97991.09;10427846;28;20567;-80
2024/02/11 11:54:40;;;;;;;32.20;18.92;;;;;;;7.00;100.00;97993.78;10456171;28;20052;-80
2024/02/11 11:59:43;;;;;;;31.92;17.83;;;;;;;6.78;100.00;98002.31;10439622;28;20045;-78
2024/02/11 12:04:48;;;;;;;30.92;17.55;;;;;;;6.96;100.00;98008.41;10441628;28;20037;-79
2024/02/11 12:09:52;;;;;;;19.08;10.43;;;;;;;6.31;100.00;98013.31;10438627;28;20044;-77
2024/02/11 12:14:55;;;;;;;22.00;11.60;;;;;;;6.62;100.00;98006.53;10421418;28;20052;-77
2024/02/11 12:20:00;;;;;;;22.83;10.77;;;;;;;6.68;100.00;98006.91;10435092;28;20053;-79
2024/02/11 12:25:03;;;;;;;19.23;9.80;;;;;;;6.94;100.00;98014.91;10445335;28;20059;-77
2024/02/11 12:30:07;;;;;;;22.08;10.18;;;;;;;6.74;100.00;98023.09;10405416;28;20046;-79
2024/02/11 12:35:11;;;;;;;17.10;11.23;;;;;;;6.87;100.00;98016.53;10465292;28;20040;-79
2024/02/11 12:40:18;;;;;;;24.30;11.38;;;;;;;7.24;100.00;98029.56;10431865;28;20060;-78
2024/02/11 12:45:21;;;;;;;25.95;14.20;;;;;;;7.20;100.00;98036.22;10436366;28;20838;-79
2024/02/11 12:50:26;;;;;;;23.65;13.32;;;;;;;7.51;100.00;98033.84;10426487;28;20053;-78
2024/02/11 12:55:29;;;;;;;24.15;14.23;;;;;;;7.81;100.00;98044.94;10456224;28;20052;-78
2024/02/11 13:00:33;;;;;;;30.55;16.15;;;;;;;7.93;100.00;98046.34;10449263;28;20059;-79
2024/02/11 13:05:37;;;;;;;30.58;16.23;;;;;;;7.97;100.00;98049.50;10463910;28;20080;-77
2024/02/11 13:10:40;;;;;;;31.63;17.50;;;;;;;7.70;100.00;98054.94;10448141;28;20126;-79
2024/02/11 13:15:44;;;;;;;31.33;17.00;;;;;;;7.87;100.00;98049.63;10427896;28;20041;-77
2024/02/11 13:20:51;;;;;;;27.58;16.55;;;;;;;7.76;100.00;98056.13;10425345;28;20163;-79
2024/02/11 13:25:55;;;;;;;23.85;14.55;;;;;;;7.60;100.00;98058.78;10441175;28;20415;-79
2024/02/11 13:30:59;;;;;;;27.88;15.98;;;;;;;7.71;100.00;98061.16;10430862;28;20064;-78
2024/02/11 13:36:18;;;;;;;26.63;15.38;;;;;;;7.81;100.00;98053.81;10444959;28;20098;-79
2024/02/11 13:41:21;;;;;;;25.83;15.10;;;;;;;7.73;100.00;98048.44;10426136;28;20052;-80
2024/02/11 13:46:24;;;;;;;32.85;15.68;;;;;;;7.57;100.00;98045.72;10414533;28;20055;-79
2024/02/11 13:51:29;;;;;;;27.23;15.82;;;;;;;7.42;100.00;98046.34;10438242;28;20053;-79
2024/02/11 13:56:32;;;;;;;29.58;15.43;;;;;;;7.75;100.00;98038.44;10435035;28;20052;-78
2024/02/11 14:01:35;;;;;;;30.30;14.38;;;;;;;7.81;100.00;98045.78;10440280;28;20049;-77
2024/02/11 14:06:42;;;;;;;25.45;13.68;;;;;;;7.50;100.00;98043.69;10457575;28;20069;-78
2024/02/11 14:11:49;;;;;;;19.50;13.32;;;;;;;7.62;100.00;98052.25;10431763;28;20055;-78
2024/02/11 14:16:52;;;;;;;22.00;14.27;;;;;;;7.62;100.00;98046.91;10426375;28;20044;-81
2024/02/11 14:21:59;;;;;;;24.25;12.38;;;;;;;7.85;100.00;98059.69;10438455;28;20068;-79
2024/02/11 14:27:04;;;;;;;20.95;12.73;;;;;;;7.48;100.00;98059.03;10449504;28;20695;-78
2024/02/11 14:32:07;;;;;;;21.45;12.32;;;;;;;8.08;100.00;98065.22;10446989;28;20056;-79
2024/02/11 14:37:12;;;;;;;20.85;13.50;;;;;;;7.89;100.00;98071.69;10434943;28;20152;-79
2024/02/11 14:42:15;;;;;;;20.73;13.32;;;;;;;8.17;100.00;98077.59;10448606;28;20033;-76
2024/02/11 14:47:18;;;;;;;23.52;13.93;;;;;;;8.36;100.00;98081.78;10449628;28;20048;-74
2024/02/11 14:52:22;;;;;;;30.13;14.98;;;;;;;8.38;100.00;98087.81;10453458;28;20052;-76
2024/02/11 14:57:26;;;;;;;27.65;14.73;;;;;;;8.42;100.00;98081.16;10449982;28;20059;-78
2024/02/11 15:02:29;;;;;;;24.60;14.98;;;;;;;8.12;100.00;98087.97;10452434;28;20052;-79
2024/02/11 15:07:34;;;;;;;26.27;14.40;;;;;;;8.21;100.00;98089.66;10459686;28;20060;-80
2024/02/11 15:12:37;;;;;;;22.77;14.05;;;;;;;8.26;100.00;98090.00;10465672;28;20341;-80
2024/02/11 15:17:40;;;;;;;22.60;15.02;;;;;;;8.11;100.00;98097.81;10458276;28;20612;-80
2024/02/11 15:22:45;;;;;;;24.52;14.23;;;;;;;8.27;100.00;98099.69;10451210;28;21655;-80
2024/02/11 15:27:48;;;;;;;23.15;14.45;;;;;;;8.22;100.00;98106.53;10422614;28;20044;-79
2024/02/11 15:32:51;;;;;;;23.90;13.20;;;;;;;8.21;100.00;98107.53;10436421;28;20059;-80
2024/02/11 15:37:56;;;;;;;24.02;14.73;;;;;;;8.16;100.00;98111.53;10457967;28;20133;-77
2024/02/11 15:42:59;;;;;;;23.85;14.60;;;;;;;8.23;100.00;98116.22;10479316;28;20520;-78
2024/02/11 15:48:04;;;;;;;27.48;15.73;;;;;;;8.25;100.00;98117.72;10461997;28;20040;-78
2024/02/11 15:53:09;;;;;;;31.02;15.63;;;;;;;8.29;100.00;98123.59;10450880;28;20082;-80
2024/02/11 15:58:12;;;;;;;25.63;14.45;;;;;;;8.27;100.00;98129.09;10455493;28;20052;-80
2024/02/11 16:03:16;;;;;;;23.83;14.15;;;;;;;8.25;100.00;98127.59;10450960;28;20055;-79
2024/02/11 16:08:20;;;;;;;24.48;14.18;;;;;;;8.38;100.00;98131.44;10438034;28;20053;-77
2024/02/11 16:13:23;;;;;;;27.42;15.50;;;;;;;8.12;100.00;98136.09;10435754;28;20127;-78
2024/02/11 16:18:26;;;;;;;26.25;14.18;;;;;;;8.15;100.00;98133.94;10437338;28;20786;-78
2024/02/11 16:23:31;;;;;;;25.45;14.73;;;;;;;8.22;100.00;98142.13;10438173;28;20683;-79
2024/02/11 16:28:34;;;;;;;25.88;13.98;;;;;;;8.11;100.00;98145.94;10422488;28;20052;-78
2024/02/11 16:33:37;;;;;;;22.02;13.50;;;;;;;8.32;100.00;98144.66;10429465;28;20308;-78
2024/02/11 16:38:41;;;;;;;22.17;12.98;;;;;;;8.34;100.00;98148.84;10424584;28;20051;-79
2024/02/11 16:43:44;;;;;;;26.38;14.25;;;;;;;8.36;100.00;98157.56;10422327;28;20931;-80
2024/02/11 16:48:48;;;;;;;23.38;14.60;;;;;;;8.33;100.00;98165.88;10441398;28;20122;-78
2024/02/11 16:53:53;;;;;;;30.67;15.70;;;;;;;8.35;100.00;98171.06;10451744;28;20053;-77
2024/02/11 16:58:56;;;;;;;26.02;15.07;;;;;;;8.31;100.00;98169.72;10433413;28;20067;-77
2024/02/11 17:04:02;;;;;;;29.23;16.23;;;;;;;8.30;100.00;98181.44;10453580;28;20051;-79
2024/02/11 17:09:06;;;;;;;24.95;15.65;;;;;;;8.31;100.00;98185.75;10423961;28;20099;-78
2024/02/11 17:14:12;;;;;;;31.27;15.32;;;;;;;8.28;100.00;98191.44;10421508;28;20768;-78
2024/02/11 17:19:18;;;;;;;29.05;16.60;;;;;;;8.29;100.00;98198.47;10433767;28;20681;-78
2024/02/11 17:24:24;;;;;;;29.83;15.93;;;;;;;8.25;100.00;98197.94;10440697;28;20051;-78
2024/02/11 17:29:27;;;;;;;31.52;15.30;;;;;;;8.17;100.00;98203.28;10448528;28;20523;-77
2024/02/11 17:34:30;;;;;;;27.50;15.32;;;;;;;8.20;100.00;98202.97;10420602;28;20116;-78
2024/02/11 17:39:37;;;;;;;26.42;15.43;;;;;;;8.23;100.00;98210.66;10438885;28;20715;-78
2024/02/11 17:44:43;;;;;;;27.17;15.05;;;;;;;8.24;100.00;98214.19;10415050;28;20045;-78
2024/02/11 17:49:47;;;;;;;27.40;14.27;;;;;;;8.26;100.00;98221.03;10450111;28;21276;-79
2024/02/11 17:54:53;;;;;;;22.13;14.38;;;;;;;8.28;100.00;98219.03;10472157;28;20075;-76
2024/02/11 17:59:56;;;;;;;27.08;14.20;;;;;;;8.30;100.00;98225.06;10476517;28;20059;-78
2024/02/11 18:04:59;;;;;;;23.27;14.80;;;;;;;8.30;100.00;98234.91;10462088;28;20045;-78
2024/02/11 18:10:05;;;;;;;29.25;16.70;;;;;;;8.31;100.00;98239.25;10433586;28;20041;-78
2024/02/11 18:15:10;;;;;;;32.58;16.83;;;;;;;8.25;100.00;98250.59;10465624;28;20337;-78
2024/02/11 18:20:15;;;;;;;37.03;18.98;;;;;;;8.15;100.00;98256.09;10464604;28;20048;-78
2024/02/11 18:25:21;;;;;;;31.55;17.25;;;;;;;8.16;100.00;98252.41;10459889;28;21252;-78
2024/02/11 18:30:44;;;;;;;26.35;16.60;;;;;;;8.14;100.00;98259.75;10459587;28;20075;-79
2024/02/11 18:35:47;;;;;;;34.70;17.17;;;;;;;8.03;100.00;98268.91;10441467;28;20048;-79
2024/02/11 18:40:52;;;;;;;32.90;18.15;;;;;;;8.00;100.00;98277.22;10440791;28;21274;-78
2024/02/11 18:45:57;;;;;;;35.50;16.20;;;;;;;7.97;100.00;98277.56;10401473;28;20069;-78
2024/02/11 18:51:05;;;;;;;30.35;17.13;;;;;;;8.05;100.00;98288.28;10394721;28;20059;-80
2024/02/11 18:56:09;;;;;;;34.33;17.17;;;;;;;8.03;100.00;98286.78;10403124;28;20053;-78
2024/02/11 19:01:12;;;;;;;29.60;17.40;;;;;;;8.00;100.00;98287.09;10420885;28;20489;-80
2024/02/11 19:06:17;;;;;;;35.33;18.52;;;;;;;7.90;100.00;98305.94;10427517;28;20143;-79
2024/02/11 19:11:21;;;;;;;31.23;16.77;;;;;;;7.87;100.00;98301.75;10412116;28;20053;-76
2024/02/11 19:16:24;;;;;;;36.47;19.20;;;;;;;7.91;100.00;98302.25;10431176;28;20059;-79
2024/02/11 19:21:27;;;;;;;35.65;19.35;;;;;;;7.91;100.00;98302.25;10461299;28;20742;-81
2024/02/11 19:26:31;;;;;;;30.15;17.58;;;;;;;7.89;100.00;98294.38;10447497;28;20664;-78
2024/02/11 19:31:34;;;;;;;36.28;18.38;;;;;;;7.88;100.00;98305.25;10443190;28;20053;-79
2024/02/11 19:36:38;;;;;;;36.58;17.73;;;;;;;7.89;100.00;98305.06;10429465;28;20056;-79
2024/02/11 19:41:46;;;;;;;28.55;17.08;;;;;;;7.94;100.00;98305.44;10432999;28;20049;-79
2024/02/11 19:46:49;;;;;;;36.92;18.38;;;;;;;7.95;100.00;98311.63;10440444;28;20049;-77
2024/02/11 19:51:52;;;;;;;28.80;16.92;;;;;;;7.95;100.00;98314.28;10446120;28;20086;-79
2024/02/11 19:56:57;;;;;;;33.20;17.23;;;;;;;7.92;100.00;98322.63;10446603;28;20037;-78
2024/02/11 20:02:01;;;;;;;28.65;19.10;;;;;;;7.87;100.00;98324.94;10444772;28;20153;-77
2024/02/11 20:07:05;;;;;;;33.08;15.55;;;;;;;7.81;100.00;98328.25;10439135;28;20133;-78
2024/02/11 20:12:10;;;;;;;30.42;15.88;;;;;;;7.86;100.00;98336.63;10429882;28;20052;-80
2024/02/11 20:17:13;;;;;;;30.55;16.00;;;;;;;7.87;100.00;98340.97;10443775;28;20049;-78
2024/02/11 20:22:17;;;;;;;31.33;16.20;;;;;;;7.89;100.00;98344.34;10444809;28;20056;-81
2024/02/11 20:27:22;;;;;;;23.17;13.60;;;;;;;7.79;100.00;98347.13;10461916;28;20515;-78
2024/02/11 20:32:27;;;;;;;27.38;15.05;;;;;;;7.83;100.00;98358.34;10459368;28;20057;-79
2024/02/11 20:37:31;;;;;;;26.88;13.80;;;;;;;7.81;100.00;98355.81;10443803;28;20071;-79
2024/02/11 20:42:40;;;;;;;21.25;13.35;;;;;;;7.85;100.00;98362.53;10451767;28;20050;-79
2024/02/11 20:47:43;;;;;;;21.65;13.57;;;;;;;7.71;100.00;98369.28;10454916;28;20067;-79
2024/02/11 20:52:47;;;;;;;24.58;12.77;;;;;;;7.80;100.00;98374.69;10446170;28;20055;-80
2024/02/11 20:57:52;;;;;;;18.10;10.90;;;;;;;7.81;100.00;98369.16;10435975;28;20056;-78
2024/02/11 21:02:55;;;;;;;18.05;10.55;;;;;;;7.50;100.00;98374.09;10440831;28;20049;-80
2024/02/11 21:07:58;;;;;;;15.98;10.02;;;;;;;7.54;100.00;98379.97;10395634;28;20474;-78
2024/02/11 21:13:05;;;;;;;16.45;10.10;;;;;;;7.66;100.00;98382.25;10410269;28;21229;-79
2024/02/11 21:18:08;;;;;;;15.27;8.63;;;;;;;7.77;100.00;98381.19;10402094;28;20045;-77
2024/02/11 21:23:12;;;;;;;18.08;8.95;;;;;;;7.76;100.00;98384.00;10397584;28;20529;-78
2024/02/11 21:28:17;;;;;;;16.17;9.05;;;;;;;7.63;100.00;98393.25;10399173;28;20506;-77
2024/02/11 21:33:22;;;;;;;12.38;8.15;;;;;;;7.58;100.00;98395.53;10397937;28;20052;-77
2024/02/11 21:38:26;;;;;;;13.65;8.23;;;;;;;7.55;100.00;98401.19;10373857;28;20056;-78
2024/02/11 21:43:30;;;;;;;16.73;8.27;;;;;;;7.43;100.00;98394.41;10401670;28;20053;-77
2024/02/11 21:48:33;;;;;;;18.58;8.50;;;;;;;7.40;100.00;98400.03;10413309;28;20063;-79
2024/02/11 21:53:36;;;;;;;15.38;7.47;;;;;;;7.49;100.00;98407.16;10401172;28;20437;-78
2024/02/11 21:58:41;;;;;;;11.57;7.68;;;;;;;7.63;100.00;98403.94;10376887;28;20049;-78
2024/02/11 22:03:46;;;;;;;15.30;8.18;;;;;;;7.66;100.00;98411.66;10380037;28;20042;-77
2024/02/11 22:08:49;;;;;;;14.32;7.10;;;;;;;7.44;100.00;98417.47;10376752;28;20061;-77
2024/02/11 22:13:54;;;;;;;14.75;7.50;;;;;;;7.50;100.00;98416.84;10402824;28;20067;-77
2024/02/11 22:18:59;;;;;;;16.08;8.32;;;;;;;7.58;100.00;98416.09;10403438;28;20051;-80
2024/02/11 22:24:02;;;;;;;15.57;8.27;;;;;;;7.53;100.00;98421.03;10436288;28;20049;-80
2024/02/11 22:29:09;;;;;;;16.10;8.48;;;;;;;7.56;100.00;98429.59;10439640;28;20048;-79
2024/02/11 22:34:13;;;;;;;17.98;8.75;;;;;;;7.19;100.00;98432.41;10421078;28;20047;-79
2024/02/11 22:39:17;;;;;;;17.27;8.27;;;;;;;7.47;100.00;98439.34;10420133;28;21264;-79
2024/02/11 22:44:22;;;;;;;18.48;8.77;;;;;;;7.43;100.00;98431.78;10450289;28;20045;-79
2024/02/11 22:49:25;;;;;;;21.88;8.32;;;;;;;7.10;100.00;98435.94;10424150;28;20045;-79
2024/02/11 22:54:28;;;;;;;15.82;7.70;;;;;;;7.29;100.00;98446.50;10426542;28;20049;-79
2024/02/11 22:59:33;;;;;;;13.25;7.85;;;;;;;7.33;100.00;98452.41;10442689;28;20059;-79
2024/02/11 23:04:36;;;;;;;16.60;7.65;;;;;;;7.37;100.00;98453.78;10428239;28;20063;-76